Terminal Aerodrome Forecast
Issued by NWS Caribou, ME

Home | Current Version | Previous Version | Text Only | Print | Product List | Glossary On
Versions: 1 2 3 4 5 6 7 8 9 10 11 12 13 14 15 16 17 18
000
FTUS41 KCAR 301303 AAA
TAFBGR
TAF AMD
KBGR 301303Z 3013/3112 20006KT P6SM BKN006
     FM301500 20011KT P6SM SCT015
     FM310000 19012G19KT P6SM BKN040
     FM310400 20012KT 5SM -SHRA BR SCT010 OVC020
     FM310700 24008KT 2SM RA BR OVC007=

USA.gov is the U.S. government's official web portal to all federal, state and local government web resources and services.